Preview of NWS' New Version of Forecast
This preview is not operational and should not be used for support decisions.

Terminal Aerodrome Forecast (TAF)

Issued by National Weather Service (NWS)

                            
000
FTUS42 KCAE 132045 AAA
TAFOGB
TAF AMD
KOGB 132045Z 1321/1418 10006KT P6SM SCT050
     FM140800 VRB02KT P6SM BKN015
     FM141000 05004KT P6SM OVC007
     FM141500 05008KT P6SM BKN025=